sensor_id;sensor_type;location;lat;lon;timestamp;pressure;altitude;pressure_sealevel;temperature;humidity
74798;BME280;63326;45.088;7.658;2023-05-15T00:01:29;98114.25;;;13.71;80.89
74798;BME280;63326;45.088;7.658;2023-05-15T00:03:56;98131.66;;;13.68;82.45
74798;BME280;63326;45.088;7.658;2023-05-15T00:06:23;98132.69;;;13.67;82.04
74798;BME280;63326;45.088;7.658;2023-05-15T00:08:49;98125.06;;;13.64;83.02
74798;BME280;63326;45.088;7.658;2023-05-15T00:11:16;98123.66;;;13.55;83.89
74798;BME280;63326;45.088;7.658;2023-05-15T00:13:43;98114.97;;;13.53;83.65
74798;BME280;63326;45.088;7.658;2023-05-15T00:16:10;98106.28;;;13.51;84.18
74798;BME280;63326;45.088;7.658;2023-05-15T00:18:37;98113.91;;;13.54;83.93
74798;BME280;63326;45.088;7.658;2023-05-15T00:21:03;98124.03;;;13.59;84.44
74798;BME280;63326;45.088;7.658;2023-05-15T00:23:30;98128.56;;;13.65;84.30
74798;BME280;63326;45.088;7.658;2023-05-15T00:25:57;98125.50;;;13.54;84.28
74798;BME280;63326;45.088;7.658;2023-05-15T00:28:23;98098.22;;;13.44;84.01
74798;BME280;63326;45.088;7.658;2023-05-15T00:30:50;98119.28;;;13.61;84.09
74798;BME280;63326;45.088;7.658;2023-05-15T00:33:17;98120.72;;;13.63;84.46
74798;BME280;63326;45.088;7.658;2023-05-15T00:35:44;98107.72;;;13.53;83.51
74798;BME280;63326;45.088;7.658;2023-05-15T00:38:11;98123.41;;;13.63;83.98
74798;BME280;63326;45.088;7.658;2023-05-15T00:40:40;98116.81;;;13.59;83.96
74798;BME280;63326;45.088;7.658;2023-05-15T00:43:07;98098.59;;;13.48;83.76
74798;BME280;63326;45.088;7.658;2023-05-15T00:45:38;98124.84;;;13.66;84.10
74798;BME280;63326;45.088;7.658;2023-05-15T00:48:07;98125.06;;;13.58;84.22
74798;BME280;63326;45.088;7.658;2023-05-15T00:50:35;98119.31;;;13.54;84.19
74798;BME280;63326;45.088;7.658;2023-05-15T00:53:04;98131.50;;;13.57;83.91
74798;BME280;63326;45.088;7.658;2023-05-15T00:55:32;98123.66;;;13.48;84.54
74798;BME280;63326;45.088;7.658;2023-05-15T00:58:00;98134.84;;;13.52;84.54
74798;BME280;63326;45.088;7.658;2023-05-15T01:00:27;98133.59;;;13.48;85.01
74798;BME280;63326;45.088;7.658;2023-05-15T01:02:55;98133.22;;;13.51;84.34
74798;BME280;63326;45.088;7.658;2023-05-15T01:05:22;98126.53;;;13.60;84.12
74798;BME280;63326;45.088;7.658;2023-05-15T01:10:36;98113.75;;;13.42;83.50
74798;BME280;63326;45.088;7.658;2023-05-15T01:13:03;98118.09;;;13.43;83.23
74798;BME280;63326;45.088;7.658;2023-05-15T01:15:31;98125.34;;;13.49;83.60
74798;BME280;63326;45.088;7.658;2023-05-15T01:17:58;98098.44;;;13.36;83.77
74798;BME280;63326;45.088;7.658;2023-05-15T01:20:25;98108.97;;;13.44;82.98
74798;BME280;63326;45.088;7.658;2023-05-15T01:23:03;98123.03;;;13.53;83.31
74798;BME280;63326;45.088;7.658;2023-05-15T01:28:11;98131.50;;;13.57;82.77
74798;BME280;63326;45.088;7.658;2023-05-15T01:30:41;98119.75;;;13.51;83.33
74798;BME280;63326;45.088;7.658;2023-05-15T01:33:24;98128.59;;;13.58;83.00
74798;BME280;63326;45.088;7.658;2023-05-15T01:38:52;98127.38;;;13.61;83.01
74798;BME280;63326;45.088;7.658;2023-05-15T01:44:25;98121.53;;;13.64;82.54
74798;BME280;63326;45.088;7.658;2023-05-15T01:46:57;98103.16;;;13.54;82.78
74798;BME280;63326;45.088;7.658;2023-05-15T01:49:27;98122.19;;;13.59;83.08
74798;BME280;63326;45.088;7.658;2023-05-15T01:52:03;98117.22;;;13.56;82.66
74798;BME280;63326;45.088;7.658;2023-05-15T01:54:32;98093.13;;;13.30;82.89
74798;BME280;63326;45.088;7.658;2023-05-15T01:57:00;98113.53;;;13.44;82.83
74798;BME280;63326;45.088;7.658;2023-05-15T01:59:28;98125.81;;;13.33;84.15
74798;BME280;63326;45.088;7.658;2023-05-15T02:01:56;98127.91;;;13.31;83.81
74798;BME280;63326;45.088;7.658;2023-05-15T02:04:25;98107.84;;;13.20;83.83
74798;BME280;63326;45.088;7.658;2023-05-15T02:06:52;98113.00;;;13.22;82.97
74798;BME280;63326;45.088;7.658;2023-05-15T02:09:21;98127.72;;;13.19;83.28
74798;BME280;63326;45.088;7.658;2023-05-15T02:11:49;98110.13;;;13.04;83.36
74798;BME280;63326;45.088;7.658;2023-05-15T02:14:17;98116.72;;;13.08;84.17
74798;BME280;63326;45.088;7.658;2023-05-15T02:16:43;98119.25;;;13.09;84.05
74798;BME280;63326;45.088;7.658;2023-05-15T02:19:10;98104.31;;;13.07;83.35
74798;BME280;63326;45.088;7.658;2023-05-15T02:21:38;98105.13;;;13.07;83.45
74798;BME280;63326;45.088;7.658;2023-05-15T02:24:05;98116.72;;;13.08;83.18
74798;BME280;63326;45.088;7.658;2023-05-15T02:32:32;98105.13;;;13.07;82.70
74798;BME280;63326;45.088;7.658;2023-05-15T02:35:18;98113.66;;;13.04;82.67
74798;BME280;63326;45.088;7.658;2023-05-15T02:37:51;98103.53;;;13.00;82.70
74798;BME280;63326;45.088;7.658;2023-05-15T02:40:19;98106.00;;;12.94;83.17
74798;BME280;63326;45.088;7.658;2023-05-15T02:42:51;98105.63;;;12.91;82.75
74798;BME280;63326;45.088;7.658;2023-05-15T02:45:19;98088.44;;;12.85;82.47
74798;BME280;63326;45.088;7.658;2023-05-15T02:47:51;98100.03;;;12.86;83.39
74798;BME280;63326;45.088;7.658;2023-05-15T02:50:21;98098.16;;;12.86;83.01
74798;BME280;63326;45.088;7.658;2023-05-15T02:52:48;98059.72;;;12.66;83.20
74798;BME280;63326;45.088;7.658;2023-05-15T02:55:15;98098.78;;;12.88;82.74
74798;BME280;63326;45.088;7.658;2023-05-15T02:57:42;98077.88;;;12.90;83.24
74798;BME280;63326;45.088;7.658;2023-05-15T03:00:09;98089.66;;;12.96;82.77
74798;BME280;63326;45.088;7.658;2023-05-15T03:02:38;98081.41;;;12.84;82.97
74798;BME280;63326;45.088;7.658;2023-05-15T03:05:06;98082.84;;;12.93;83.15
74798;BME280;63326;45.088;7.658;2023-05-15T03:07:33;98077.44;;;13.00;82.45
74798;BME280;63326;45.088;7.658;2023-05-15T03:09:59;98072.66;;;13.02;82.95
74798;BME280;63326;45.088;7.658;2023-05-15T03:12:27;98076.84;;;12.91;82.44
74798;BME280;63326;45.088;7.658;2023-05-15T03:14:53;98071.06;;;12.75;83.08
74798;BME280;63326;45.088;7.658;2023-05-15T03:17:20;98082.88;;;12.74;83.29
74798;BME280;63326;45.088;7.658;2023-05-15T03:19:47;98063.44;;;12.65;83.76
74798;BME280;63326;45.088;7.658;2023-05-15T03:22:14;98065.94;;;12.60;84.02
74798;BME280;63326;45.088;7.658;2023-05-15T03:24:40;98056.00;;;12.60;83.75
74798;BME280;63326;45.088;7.658;2023-05-15T03:27:07;98063.66;;;12.63;83.57
74798;BME280;63326;45.088;7.658;2023-05-15T03:29:34;98076.06;;;12.71;84.20
74798;BME280;63326;45.088;7.658;2023-05-15T03:32:01;98072.34;;;12.72;83.42
74798;BME280;63326;45.088;7.658;2023-05-15T03:34:27;98060.34;;;12.68;84.02
74798;BME280;63326;45.088;7.658;2023-05-15T03:36:54;98064.25;;;12.72;83.94
74798;BME280;63326;45.088;7.658;2023-05-15T03:39:21;98064.47;;;12.71;83.53
74798;BME280;63326;45.088;7.658;2023-05-15T03:41:47;98076.44;;;12.81;83.62
74798;BME280;63326;45.088;7.658;2023-05-15T03:44:14;98060.75;;;12.72;83.22
74798;BME280;63326;45.088;7.658;2023-05-15T03:46:41;98049.81;;;12.60;83.46
74798;BME280;63326;45.088;7.658;2023-05-15T03:49:09;98077.28;;;12.75;84.04
74798;BME280;63326;45.088;7.658;2023-05-15T03:51:36;98071.50;;;12.72;83.49
74798;BME280;63326;45.088;7.658;2023-05-15T03:54:03;98070.88;;;12.76;83.14
74798;BME280;63326;45.088;7.658;2023-05-15T03:56:31;98065.31;;;12.71;83.35
74798;BME280;63326;45.088;7.658;2023-05-15T03:58:58;98050.84;;;12.59;84.32
74798;BME280;63326;45.088;7.658;2023-05-15T04:01:25;98060.13;;;12.69;84.32
74798;BME280;63326;45.088;7.658;2023-05-15T04:03:51;98058.06;;;12.72;83.89
74798;BME280;63326;45.088;7.658;2023-05-15T04:06:18;98057.63;;;12.75;83.94
74798;BME280;63326;45.088;7.658;2023-05-15T04:08:44;98073.75;;;12.81;83.65
74798;BME280;63326;45.088;7.658;2023-05-15T04:11:11;98064.88;;;12.81;83.46
74798;BME280;63326;45.088;7.658;2023-05-15T04:13:38;98058.88;;;12.72;84.14
74798;BME280;63326;45.088;7.658;2023-05-15T04:16:05;98068.59;;;12.73;83.70
74798;BME280;63326;45.088;7.658;2023-05-15T04:18:32;98065.09;;;12.66;84.29
74798;BME280;63326;45.088;7.658;2023-05-15T04:20:59;98051.88;;;12.51;84.83
74798;BME280;63326;45.088;7.658;2023-05-15T04:23:26;98054.56;;;12.58;84.67
74798;BME280;63326;45.088;7.658;2023-05-15T04:25:52;98059.97;;;12.58;84.25
74798;BME280;63326;45.088;7.658;2023-05-15T04:28:20;98066.13;;;12.72;84.00
74798;BME280;63326;45.088;7.658;2023-05-15T04:30:47;98043.59;;;12.59;84.21
74798;BME280;63326;45.088;7.658;2023-05-15T04:33:13;98062.19;;;12.74;84.24
74798;BME280;63326;45.088;7.658;2023-05-15T04:35:40;98063.00;;;12.75;83.48
74798;BME280;63326;45.088;7.658;2023-05-15T04:38:07;98067.16;;;12.77;83.66
74798;BME280;63326;45.088;7.658;2023-05-15T04:40:34;98064.22;;;12.85;82.62
74798;BME280;63326;45.088;7.658;2023-05-15T04:43:00;98063.44;;;12.72;83.66
74798;BME280;63326;45.088;7.658;2023-05-15T04:45:29;98048.38;;;12.57;83.73
74798;BME280;63326;45.088;7.658;2023-05-15T04:47:55;98048.59;;;12.49;83.74
74798;BME280;63326;45.088;7.658;2023-05-15T04:50:22;98054.97;;;12.55;83.85
74798;BME280;63326;45.088;7.658;2023-05-15T04:52:50;98074.41;;;12.70;84.04
74798;BME280;63326;45.088;7.658;2023-05-15T04:55:17;98061.59;;;12.59;83.96
74798;BME280;63326;45.088;7.658;2023-05-15T04:57:45;98063.88;;;12.62;84.10
74798;BME280;63326;45.088;7.658;2023-05-15T05:00:13;98065.91;;;12.66;83.66
74798;BME280;63326;45.088;7.658;2023-05-15T05:02:40;98063.00;;;12.75;84.35
74798;BME280;63326;45.088;7.658;2023-05-15T05:05:08;98066.34;;;12.70;83.81
74798;BME280;63326;45.088;7.658;2023-05-15T05:07:35;98068.38;;;12.81;84.38
74798;BME280;63326;45.088;7.658;2023-05-15T05:10:02;98052.47;;;12.73;84.11
74798;BME280;63326;45.088;7.658;2023-05-15T05:12:29;98067.56;;;12.87;83.71
74798;BME280;63326;45.088;7.658;2023-05-15T05:14:56;98067.91;;;13.04;83.13
74798;BME280;63326;45.088;7.658;2023-05-15T05:17:23;98056.75;;;12.94;82.48
74798;BME280;63326;45.088;7.658;2023-05-15T05:19:49;98063.75;;;13.08;82.55
74798;BME280;63326;45.088;7.658;2023-05-15T05:22:16;98052.13;;;13.14;82.21
74798;BME280;63326;45.088;7.658;2023-05-15T05:24:43;98042.25;;;13.02;81.89
74798;BME280;63326;45.088;7.658;2023-05-15T05:27:09;98057.75;;;13.06;81.46
74798;BME280;63326;45.088;7.658;2023-05-15T05:29:36;98057.34;;;13.09;81.41
74798;BME280;63326;45.088;7.658;2023-05-15T05:32:03;98056.75;;;13.01;81.98
74798;BME280;63326;45.088;7.658;2023-05-15T05:34:30;98044.56;;;12.85;82.25
74798;BME280;63326;45.088;7.658;2023-05-15T05:36:56;98060.66;;;13.05;82.25
74798;BME280;63326;45.088;7.658;2023-05-15T05:39:23;98054.72;;;12.89;82.46
74798;BME280;63326;45.088;7.658;2023-05-15T05:41:49;98036.47;;;12.91;82.45
74798;BME280;63326;45.088;7.658;2023-05-15T05:44:16;98040.97;;;13.11;81.61
74798;BME280;63326;45.088;7.658;2023-05-15T05:46:43;98020.50;;;13.03;81.26
74798;BME280;63326;45.088;7.658;2023-05-15T05:49:11;98066.91;;;13.50;79.91
74798;BME280;63326;45.088;7.658;2023-05-15T05:51:37;98042.41;;;13.58;79.59
74798;BME280;63326;45.088;7.658;2023-05-15T05:54:04;98028.94;;;13.58;78.76
74798;BME280;63326;45.088;7.658;2023-05-15T05:56:31;98025.78;;;13.68;78.73
74798;BME280;63326;45.088;7.658;2023-05-15T05:58:58;98043.75;;;13.80;77.89
74798;BME280;63326;45.088;7.658;2023-05-15T06:01:27;98048.88;;;14.13;76.57
74798;BME280;63326;45.088;7.658;2023-05-15T06:03:54;98043.97;;;14.29;75.64
74798;BME280;63326;45.088;7.658;2023-05-15T06:06:21;98033.09;;;14.42;75.27
74798;BME280;63326;45.088;7.658;2023-05-15T06:08:48;98045.91;;;14.72;73.98
74798;BME280;63326;45.088;7.658;2023-05-15T06:11:14;98053.31;;;14.94;72.31
74798;BME280;63326;45.088;7.658;2023-05-15T06:13:41;98037.06;;;14.83;71.93
74798;BME280;63326;45.088;7.658;2023-05-15T06:16:08;98051.38;;;14.83;73.12
74798;BME280;63326;45.088;7.658;2023-05-15T06:18:35;98041.03;;;14.98;71.38
74798;BME280;63326;45.088;7.658;2023-05-15T06:21:02;98056.44;;;14.91;71.92
74798;BME280;63326;45.088;7.658;2023-05-15T06:23:29;98052.03;;;14.97;72.21
74798;BME280;63326;45.088;7.658;2023-05-15T06:25:55;98057.06;;;15.12;71.18
74798;BME280;63326;45.088;7.658;2023-05-15T06:28:22;98058.28;;;15.16;71.15
74798;BME280;63326;45.088;7.658;2023-05-15T06:30:49;98045.81;;;15.15;70.90
74798;BME280;63326;45.088;7.658;2023-05-15T06:33:15;98059.38;;;15.26;70.37
74798;BME280;63326;45.088;7.658;2023-05-15T06:35:42;98062.97;;;15.39;70.21
74798;BME280;63326;45.088;7.658;2023-05-15T06:38:09;98058.91;;;15.48;69.97
74798;BME280;63326;45.088;7.658;2023-05-15T06:40:36;98052.63;;;15.84;68.77
74798;BME280;63326;45.088;7.658;2023-05-15T06:43:02;98051.84;;;16.07;67.77
74798;BME280;63326;45.088;7.658;2023-05-15T06:45:29;98045.66;;;16.41;66.23
74798;BME280;63326;45.088;7.658;2023-05-15T06:47:58;98052.84;;;16.94;64.41
74798;BME280;63326;45.088;7.658;2023-05-15T06:50:27;98040.50;;;17.39;63.00
74798;BME280;63326;45.088;7.658;2023-05-15T06:52:54;98042.38;;;17.78;61.15
74798;BME280;63326;45.088;7.658;2023-05-15T06:55:20;98040.38;;;18.19;59.24
74798;BME280;63326;45.088;7.658;2023-05-15T06:57:47;98054.75;;;18.36;58.87
74798;BME280;63326;45.088;7.658;2023-05-15T07:00:14;98046.34;;;18.38;59.04
74798;BME280;63326;45.088;7.658;2023-05-15T07:02:41;98061.09;;;18.76;57.97
74798;BME280;63326;45.088;7.658;2023-05-15T07:05:09;98057.88;;;18.79;57.24
74798;BME280;63326;45.088;7.658;2023-05-15T07:07:37;98065.03;;;18.85;56.84
74798;BME280;63326;45.088;7.658;2023-05-15T07:10:04;98056.66;;;18.36;58.41
74798;BME280;63326;45.088;7.658;2023-05-15T07:12:30;98053.44;;;17.77;60.74
74798;BME280;63326;45.088;7.658;2023-05-15T07:14:58;98067.03;;;17.65;61.57
74798;BME280;63326;45.088;7.658;2023-05-15T07:17:25;98038.75;;;17.33;61.22
74798;BME280;63326;45.088;7.658;2023-05-15T07:19:52;98022.53;;;17.21;61.65
74798;BME280;63326;45.088;7.658;2023-05-15T07:22:19;98043.00;;;17.28;61.93
74798;BME280;63326;45.088;7.658;2023-05-15T07:24:46;98041.28;;;17.51;61.36
74798;BME280;63326;45.088;7.658;2023-05-15T07:27:13;98037.78;;;17.39;61.95
74798;BME280;63326;45.088;7.658;2023-05-15T07:29:39;98042.19;;;17.28;62.08
74798;BME280;63326;45.088;7.658;2023-05-15T07:32:06;98052.81;;;17.18;62.91
74798;BME280;63326;45.088;7.658;2023-05-15T07:34:33;98053.59;;;17.30;63.09
74798;BME280;63326;45.088;7.658;2023-05-15T07:37:00;98045.53;;;17.07;63.37
74798;BME280;63326;45.088;7.658;2023-05-15T07:39:26;98027.41;;;17.07;63.46
74798;BME280;63326;45.088;7.658;2023-05-15T07:41:53;98038.44;;;17.58;61.91
74798;BME280;63326;45.088;7.658;2023-05-15T07:44:20;98023.72;;;17.82;60.90
74798;BME280;63326;45.088;7.658;2023-05-15T07:46:46;98033.59;;;18.05;60.31
74798;BME280;63326;45.088;7.658;2023-05-15T07:49:13;98005.22;;;18.46;58.52
74798;BME280;63326;45.088;7.658;2023-05-15T07:51:40;98016.28;;;19.17;56.25
74798;BME280;63326;45.088;7.658;2023-05-15T07:54:08;98020.06;;;19.60;54.81
74798;BME280;63326;45.088;7.658;2023-05-15T07:56:34;98018.72;;;19.89;54.51
74798;BME280;63326;45.088;7.658;2023-05-15T07:59:01;98034.38;;;20.36;53.48
74798;BME280;63326;45.088;7.658;2023-05-15T08:01:28;98031.22;;;20.86;51.98
74798;BME280;63326;45.088;7.658;2023-05-15T08:03:58;98024.19;;;20.95;51.18
74798;BME280;63326;45.088;7.658;2023-05-15T08:06:25;98025.19;;;20.10;54.01
74798;BME280;63326;45.088;7.658;2023-05-15T08:08:51;98012.81;;;19.43;55.02
74798;BME280;63326;45.088;7.658;2023-05-15T08:11:18;98022.69;;;20.03;54.27
74798;BME280;63326;45.088;7.658;2023-05-15T08:13:45;98016.28;;;19.39;55.47
74798;BME280;63326;45.088;7.658;2023-05-15T08:16:11;98003.31;;;19.46;55.54
74798;BME280;63326;45.088;7.658;2023-05-15T08:18:38;98002.31;;;20.06;53.37
74798;BME280;63326;45.088;7.658;2023-05-15T08:21:05;97993.47;;;20.58;52.21
74798;BME280;63326;45.088;7.658;2023-05-15T08:23:32;97990.59;;;20.80;50.95
74798;BME280;63326;45.088;7.658;2023-05-15T08:25:58;97998.91;;;21.10;50.53
74798;BME280;63326;45.088;7.658;2023-05-15T08:28:25;97987.75;;;20.59;50.76
74798;BME280;63326;45.088;7.658;2023-05-15T08:30:52;97981.03;;;20.77;50.42
74798;BME280;63326;45.088;7.658;2023-05-15T08:33:18;97983.66;;;21.09;50.64
74798;BME280;63326;45.088;7.658;2023-05-15T08:35:45;97988.75;;;21.63;48.53
74798;BME280;63326;45.088;7.658;2023-05-15T08:38:12;97981.69;;;21.77;48.27
74798;BME280;63326;45.088;7.658;2023-05-15T08:40:40;97981.44;;;21.01;49.02
74798;BME280;63326;45.088;7.658;2023-05-15T08:43:12;98002.56;;;21.31;48.52
74798;BME280;63326;45.088;7.658;2023-05-15T08:45:42;98005.94;;;21.59;48.44
74798;BME280;63326;45.088;7.658;2023-05-15T08:48:13;98003.75;;;21.66;47.67
74798;BME280;63326;45.088;7.658;2023-05-15T08:50:42;97999.47;;;22.26;46.77
74798;BME280;63326;45.088;7.658;2023-05-15T08:53:13;97995.63;;;22.62;45.55
74798;BME280;63326;45.088;7.658;2023-05-15T08:55:40;98009.22;;;22.98;44.78
74798;BME280;63326;45.088;7.658;2023-05-15T08:58:08;97977.44;;;23.17;43.33
74798;BME280;63326;45.088;7.658;2023-05-15T09:00:35;97999.25;;;23.33;43.38
74798;BME280;63326;45.088;7.658;2023-05-15T09:03:02;97990.47;;;23.36;43.69
74798;BME280;63326;45.088;7.658;2023-05-15T09:05:29;97988.94;;;23.74;42.47
74798;BME280;63326;45.088;7.658;2023-05-15T09:07:58;97985.84;;;23.80;42.10
74798;BME280;63326;45.088;7.658;2023-05-15T09:10:29;97978.19;;;24.17;41.17
74798;BME280;63326;45.088;7.658;2023-05-15T09:12:58;97977.44;;;24.45;40.69
74798;BME280;63326;45.088;7.658;2023-05-15T09:15:25;97987.31;;;24.07;40.74
74798;BME280;63326;45.088;7.658;2023-05-15T09:17:53;97988.50;;;24.35;40.52
74798;BME280;63326;45.088;7.658;2023-05-15T09:20:34;97997.25;;;24.90;39.51
74798;BME280;63326;45.088;7.658;2023-05-15T09:23:03;97968.84;;;24.81;38.78
74798;BME280;63326;45.088;7.658;2023-05-15T09:28:07;97991.81;;;24.32;39.06
74798;BME280;63326;45.088;7.658;2023-05-15T09:30:38;97982.06;;;23.76;40.46
74798;BME280;63326;45.088;7.658;2023-05-15T09:33:07;97967.88;;;24.42;38.89
74798;BME280;63326;45.088;7.658;2023-05-15T09:35:38;97960.69;;;24.76;38.23
74798;BME280;63326;45.088;7.658;2023-05-15T09:38:11;97973.72;;;25.55;36.21
74798;BME280;63326;45.088;7.658;2023-05-15T09:40:38;97973.66;;;25.79;35.93
74798;BME280;63326;45.088;7.658;2023-05-15T09:43:11;97975.34;;;25.14;36.06
74798;BME280;63326;45.088;7.658;2023-05-15T09:45:38;97954.50;;;25.74;35.43
74798;BME280;63326;45.088;7.658;2023-05-15T09:48:06;97976.59;;;25.45;36.01
74798;BME280;63326;45.088;7.658;2023-05-15T09:50:35;97975.84;;;24.05;38.29
74798;BME280;63326;45.088;7.658;2023-05-15T09:53:03;97954.19;;;24.90;35.51
74798;BME280;63326;45.088;7.658;2023-05-15T09:55:31;97982.25;;;25.92;35.36
74798;BME280;63326;45.088;7.658;2023-05-15T09:58:10;97962.31;;;26.37;33.95
74798;BME280;63326;45.088;7.658;2023-05-15T10:00:38;97977.84;;;26.09;35.09
74798;BME280;63326;45.088;7.658;2023-05-15T10:03:15;97965.63;;;25.83;35.00
74798;BME280;63326;45.088;7.658;2023-05-15T10:05:42;97963.75;;;25.60;35.43
74798;BME280;63326;45.088;7.658;2023-05-15T10:08:10;97972.63;;;26.59;34.20
74798;BME280;63326;45.088;7.658;2023-05-15T10:10:37;97968.66;;;26.65;34.34
74798;BME280;63326;45.088;7.658;2023-05-15T10:13:06;97976.16;;;25.95;34.37
74798;BME280;63326;45.088;7.658;2023-05-15T10:15:34;97972.13;;;26.57;33.32
74798;BME280;63326;45.088;7.658;2023-05-15T10:18:02;97975.00;;;27.35;32.15
74798;BME280;63326;45.088;7.658;2023-05-15T10:20:31;97979.88;;;27.51;31.39
74798;BME280;63326;45.088;7.658;2023-05-15T10:22:59;97954.47;;;27.68;31.42
74798;BME280;63326;45.088;7.658;2023-05-15T10:28:08;97971.53;;;27.02;32.10
74798;BME280;63326;45.088;7.658;2023-05-15T10:30:36;97958.72;;;27.24;30.89
74798;BME280;63326;45.088;7.658;2023-05-15T10:33:05;97986.84;;;27.35;31.24
74798;BME280;63326;45.088;7.658;2023-05-15T10:35:33;97955.13;;;27.38;31.23
74798;BME280;63326;45.088;7.658;2023-05-15T10:38:02;97980.38;;;27.67;30.97
74798;BME280;63326;45.088;7.658;2023-05-15T10:40:29;97976.50;;;27.54;31.27
74798;BME280;63326;45.088;7.658;2023-05-15T10:42:58;97959.78;;;28.01;30.31
74798;BME280;63326;45.088;7.658;2023-05-15T10:45:28;97942.00;;;26.93;31.74
74798;BME280;63326;45.088;7.658;2023-05-15T10:47:56;97952.91;;;27.40;31.42
74798;BME280;63326;45.088;7.658;2023-05-15T10:50:23;97946.03;;;27.87;30.90
74798;BME280;63326;45.088;7.658;2023-05-15T10:52:50;97977.56;;;28.17;30.99
74798;BME280;63326;45.088;7.658;2023-05-15T10:55:18;97952.25;;;29.00;29.67
74798;BME280;63326;45.088;7.658;2023-05-15T10:57:44;97962.22;;;28.02;30.84
74798;BME280;63326;45.088;7.658;2023-05-15T11:02:49;97942.28;;;27.83;31.62
74798;BME280;63326;45.088;7.658;2023-05-15T11:05:19;97930.56;;;27.77;31.31
74798;BME280;63326;45.088;7.658;2023-05-15T11:08:26;97946.56;;;28.96;29.73
74798;BME280;63326;45.088;7.658;2023-05-15T11:10:51;97945.75;;;28.64;30.13
74798;BME280;63326;45.088;7.658;2023-05-15T11:13:19;97914.38;;;28.21;29.99
74798;BME280;63326;45.088;7.658;2023-05-15T11:15:47;97938.22;;;28.03;30.37
74798;BME280;63326;45.088;7.658;2023-05-15T11:18:14;97938.56;;;28.55;29.93
74798;BME280;63326;45.088;7.658;2023-05-15T11:23:28;97927.06;;;28.08;29.80
74798;BME280;63326;45.088;7.658;2023-05-15T11:26:04;97921.16;;;28.77;29.22
74798;BME280;63326;45.088;7.658;2023-05-15T11:28:40;97932.94;;;29.57;27.89
74798;BME280;63326;45.088;7.658;2023-05-15T11:31:07;97933.09;;;29.60;28.32
74798;BME280;63326;45.088;7.658;2023-05-15T11:33:37;97936.66;;;30.30;26.34
74798;BME280;63326;45.088;7.658;2023-05-15T11:36:04;97934.91;;;30.72;26.09
74798;BME280;63326;45.088;7.658;2023-05-15T11:38:36;97937.66;;;31.48;25.65
74798;BME280;63326;45.088;7.658;2023-05-15T11:41:17;97920.97;;;31.99;24.12
74798;BME280;63326;45.088;7.658;2023-05-15T11:43:44;97917.50;;;32.02;23.66
74798;BME280;63326;45.088;7.658;2023-05-15T11:46:12;97920.47;;;32.51;23.69
74798;BME280;63326;45.088;7.658;2023-05-15T11:48:44;97932.44;;;33.24;22.16
74798;BME280;63326;45.088;7.658;2023-05-15T11:51:15;97932.31;;;33.45;22.09
74798;BME280;63326;45.088;7.658;2023-05-15T11:53:44;97913.22;;;33.32;22.19
74798;BME280;63326;45.088;7.658;2023-05-15T11:56:18;97926.13;;;32.54;22.34
74798;BME280;63326;45.088;7.658;2023-05-15T11:58:54;97927.88;;;31.13;24.29
74798;BME280;63326;45.088;7.658;2023-05-15T12:01:21;97904.28;;;30.86;24.63
74798;BME280;63326;45.088;7.658;2023-05-15T12:03:47;97922.16;;;30.33;25.17
74798;BME280;63326;45.088;7.658;2023-05-15T12:06:15;97927.28;;;29.05;26.82
74798;BME280;63326;45.088;7.658;2023-05-15T12:08:42;97914.72;;;31.10;24.71
74798;BME280;63326;45.088;7.658;2023-05-15T12:11:09;97895.84;;;31.03;23.94
74798;BME280;63326;45.088;7.658;2023-05-15T12:13:36;97903.41;;;30.94;24.35
74798;BME280;63326;45.088;7.658;2023-05-15T12:16:03;97883.34;;;32.80;22.18
74798;BME280;63326;45.088;7.658;2023-05-15T12:18:31;97887.06;;;33.08;22.00
74798;BME280;63326;45.088;7.658;2023-05-15T12:20:58;97882.63;;;32.58;23.02
74798;BME280;63326;45.088;7.658;2023-05-15T12:23:25;97884.63;;;31.79;23.54
74798;BME280;63326;45.088;7.658;2023-05-15T12:26:00;97893.25;;;32.32;22.97
74798;BME280;63326;45.088;7.658;2023-05-15T12:28:28;97884.47;;;32.30;22.75
74798;BME280;63326;45.088;7.658;2023-05-15T12:30:55;97875.69;;;29.40;25.71
74798;BME280;63326;45.088;7.658;2023-05-15T12:33:23;97888.34;;;29.41;26.62
74798;BME280;63326;45.088;7.658;2023-05-15T12:35:53;97902.78;;;32.22;23.23
74798;BME280;63326;45.088;7.658;2023-05-15T12:38:26;97896.56;;;28.58;25.98
74798;BME280;63326;45.088;7.658;2023-05-15T12:40:53;97874.38;;;28.01;27.19
74798;BME280;63326;45.088;7.658;2023-05-15T12:43:22;97900.09;;;28.50;26.55
74798;BME280;63326;45.088;7.658;2023-05-15T12:45:51;97894.75;;;27.77;28.37
74798;BME280;63326;45.088;7.658;2023-05-15T12:48:18;97876.66;;;28.61;26.88
74798;BME280;63326;45.088;7.658;2023-05-15T12:50:45;97890.66;;;28.20;27.55
74798;BME280;63326;45.088;7.658;2023-05-15T12:53:13;97894.09;;;27.72;28.52
74798;BME280;63326;45.088;7.658;2023-05-15T12:55:44;97891.94;;;27.69;28.47
74798;BME280;63326;45.088;7.658;2023-05-15T12:58:14;97874.22;;;29.16;26.14
74798;BME280;63326;45.088;7.658;2023-05-15T13:00:44;97883.03;;;30.99;24.05
74798;BME280;63326;45.088;7.658;2023-05-15T13:03:12;97865.03;;;31.97;22.58
74798;BME280;63326;45.088;7.658;2023-05-15T13:05:43;97873.91;;;28.07;26.93
74798;BME280;63326;45.088;7.658;2023-05-15T13:08:16;97882.94;;;28.53;26.57
74798;BME280;63326;45.088;7.658;2023-05-15T13:10:43;97888.72;;;27.53;27.88
74798;BME280;63326;45.088;7.658;2023-05-15T13:13:11;97893.31;;;27.08;28.22
74798;BME280;63326;45.088;7.658;2023-05-15T13:15:39;97895.22;;;26.66;29.31
74798;BME280;63326;45.088;7.658;2023-05-15T13:18:08;97896.16;;;26.61;29.09
74798;BME280;63326;45.088;7.658;2023-05-15T13:20:40;97883.28;;;27.25;28.13
74798;BME280;63326;45.088;7.658;2023-05-15T13:23:08;97879.94;;;27.01;28.22
74798;BME280;63326;45.088;7.658;2023-05-15T13:25:35;97887.41;;;26.73;29.52
74798;BME280;63326;45.088;7.658;2023-05-15T13:28:04;97898.41;;;26.73;30.58
74798;BME280;63326;45.088;7.658;2023-05-15T13:30:32;97885.50;;;26.27;31.52
74798;BME280;63326;45.088;7.658;2023-05-15T13:33:00;97896.13;;;26.01;31.52